Latest Weather Observations for Outer Harbor (Black Pole)

IDS60801

Issued at 2:11 pm CDT Monday 18 November 2019 (issued every 10 minutes, with the page automatically refreshed every 10 minutes)

About weather observations | Map of weather stations | Latest weather observations for SA | Other Formats
Station Details ID: 023052 Name: BLACK POLE Lat: -34.73 Lon: 138.47 Height: 6.27 m
Data from the previous 72 hours. | See also: Recent months for locations in South Australia
Date/Time
CDT
Temp
°C
App
Temp
°C
Dew
Point
°C
Rel
Hum
%
Delta-T
°C
Wind Press
QNH
hPa
Press
MSL
hPa
Rain since
9am
mm
Dir  Spd
km/h
Gust
km/h
Spd
kts
Gust
kts
18/02:00pm - - - - - NNW 9 13 5 7 - - -
18/01:30pm - - - - - NNW 7 9 4 5 - - -
18/01:00pm - - - - - NNW 2 4 1 2 - - -
18/12:30pm - - - - - SSE 2 2 1 1 - - -
18/12:00pm - - - - - SSW 6 6 3 3 - - -
18/11:30am - - - - - SW 6 7 3 4 - - -
18/11:00am - - - - - SW 7 9 4 5 - - -
18/10:30am - - - - - WSW 7 7 4 4 - - -
18/10:00am - - - - - N 6 7 3 4 - - -
18/09:30am - - - - - NNE 9 11 5 6 - - -
18/09:00am - - - - - NE 9 13 5 7 - - -
18/08:30am - - - - - NE 11 15 6 8 - - -
18/08:00am - - - - - NNE 15 19 8 10 - - -
18/07:30am - - - - - NE 22 26 12 14 - - -
18/07:00am - - - - - NE 22 26 12 14 - - -
18/06:30am - - - - - NE 19 24 10 13 - - -
18/06:00am - - - - - NE 22 28 12 15 - - -
18/05:30am - - - - - NE 24 28 13 15 - - -
18/05:00am - - - - - NE 20 24 11 13 - - -
18/04:30am - - - - - NE 17 20 9 11 - - -
18/04:00am - - - - - NE 15 17 8 9 - - -
18/03:30am - - - - - ENE 15 17 8 9 - - -
18/03:00am - - - - - NE 17 19 9 10 - - -
18/02:30am - - - - - NE 11 13 6 7 - - -
18/02:00am - - - - - NE 9 11 5 6 - - -
18/01:30am - - - - - N 6 9 3 5 - - -
18/01:00am - - - - - NNW 9 13 5 7 - - -
18/12:30am - - - - - N 17 19 9 10 - - -
18/12:00am - - - - - NNE 9 11 5 6 - - -
 
Date/Time
CDT
Temp
°C
App
Temp
°C
Dew
Point
°C
Rel
Hum
%
Delta-T
°C
Wind Press
QNH
hPa
Press
MSL
hPa
Rain since
9am
mm
Dir  Spd
km/h
Gust
km/h
Spd
kts
Gust
kts
17/11:30pm - - - - - ENE 9 13 5 7 - - -
17/11:00pm - - - - - E 7 9 4 5 - - -
17/10:30pm - - - - - ESE 7 11 4 6 - - -
17/10:00pm - - - - - SSE 15 17 8 9 - - -
17/09:30pm - - - - - S 19 20 10 11 - - -
17/09:00pm - - - - - S 20 24 11 13 - - -
17/08:30pm - - - - - S 26 30 14 16 - - -
17/08:00pm - - - - - S 24 30 13 16 - - -
17/07:30pm - - - - - S 24 28 13 15 - - -
17/07:00pm - - - - - S 24 30 13 16 - - -
17/06:30pm - - - - - S 26 30 14 16 - - -
17/06:00pm - - - - - SSW 24 28 13 15 - - -
17/05:30pm - - - - - SSW 19 22 10 12 - - -
17/05:00pm - - - - - SW 19 20 10 11 - - -
17/04:30pm - - - - - SW 19 20 10 11 - - -
17/04:00pm - - - - - SW 19 22 10 12 - - -
17/03:30pm - - - - - SW 22 28 12 15 - - -
17/03:00pm - - - - - SW 26 30 14 16 - - -
17/02:30pm - - - - - SW 26 32 14 17 - - -
17/02:00pm - - - - - SW 26 30 14 16 - - -
17/01:30pm - - - - - SW 24 28 13 15 - - -
17/01:00pm - - - - - SW 22 28 12 15 - - -
17/12:30pm - - - - - SW 19 24 10 13 - - -
17/12:00pm - - - - - SW 19 22 10 12 - - -
17/11:30am - - - - - SSW 17 22 9 12 - - -
17/11:00am - - - - - SSW 19 24 10 13 - - -
17/10:30am - - - - - SSW 17 20 9 11 - - -
17/10:00am - - - - - SSW 17 22 9 12 - - -
17/09:30am - - - - - S 19 24 10 13 - - -
17/09:00am - - - - - E 7 11 4 6 - - -
17/08:30am - - - - - ENE 7 11 4 6 - - -
17/08:00am - - - - - E 7 11 4 6 - - -
17/07:30am - - - - - NE 7 9 4 5 - - -
17/07:00am - - - - - NNE 9 11 5 6 - - -
17/06:30am - - - - - NE 11 15 6 8 - - -
17/06:00am - - - - - NE 13 15 7 8 - - -
17/05:30am - - - - - ENE 11 13 6 7 - - -
17/05:00am - - - - - E 11 15 6 8 - - -
17/04:30am - - - - - SE 15 20 8 11 - - -
17/04:00am - - - - - SE 17 20 9 11 - - -
17/03:30am - - - - - SE 20 24 11 13 - - -
17/03:00am - - - - - SSE 19 22 10 12 - - -
17/02:30am - - - - - SSE 19 26 10 14 - - -
17/02:00am - - - - - SE 20 26 11 14 - - -
17/01:30am - - - - - SSE 24 30 13 16 - - -
17/01:00am - - - - - SSE 22 28 12 15 - - -
17/12:30am - - - - - SSE 24 30 13 16 - - -
17/12:00am - - - - - SSE 28 33 15 18 - - -
 
Date/Time
CDT
Temp
°C
App
Temp
°C
Dew
Point
°C
Rel
Hum
%
Delta-T
°C
Wind Press
QNH
hPa
Press
MSL
hPa
Rain since
9am
mm
Dir  Spd
km/h
Gust
km/h
Spd
kts
Gust
kts
16/11:30pm - - - - - SSE 26 30 14 16 - - -
16/11:00pm - - - - - SSE 26 33 14 18 - - -
16/10:30pm - - - - - SSE 26 33 14 18 - - -
16/10:00pm - - - - - SSE 26 33 14 18 - - -
16/09:30pm - - - - - SSE 32 39 17 21 - - -
16/09:00pm - - - - - S 35 41 19 22 - - -
16/08:30pm - - - - - S 33 39 18 21 - - -
16/08:00pm - - - - - S 39 46 21 25 - - -
16/07:30pm - - - - - SSW 39 46 21 25 - - -
16/07:00pm - - - - - SSW 39 43 21 23 - - -
16/06:30pm - - - - - SSW 39 46 21 25 - - -
16/06:00pm - - - - - SSW 43 52 23 28 - - -
16/05:30pm - - - - - SSW 44 52 24 28 - - -
16/05:00pm - - - - - SSW 41 46 22 25 - - -
16/04:30pm - - - - - SSW 37 44 20 24 - - -
16/04:00pm - - - - - SSW 35 41 19 22 - - -
16/03:30pm - - - - - SSW 32 37 17 20 - - -
16/03:00pm - - - - - SSW 32 39 17 21 - - -
16/02:30pm - - - - - SSW 33 41 18 22 - - -
16/02:00pm - - - - - SSW 32 37 17 20 - - -
16/01:30pm - - - - - SW 30 35 16 19 - - -
16/01:00pm - - - - - SW 26 32 14 17 - - -
16/12:30pm - - - - - SW 24 30 13 16 - - -
16/12:00pm - - - - - SW 20 26 11 14 - - -
16/11:30am - - - - - WSW 13 19 7 10 - - -
16/11:00am - - - - - SW 9 13 5 7 - - -
16/10:30am - - - - - SSW 7 13 4 7 - - -
16/10:00am - - - - - SSW 6 9 3 5 - - -
16/09:30am - - - - - SE 6 11 3 6 - - -
16/09:00am - - - - - ESE 11 17 6 9 - - -
16/08:30am - - - - - ESE 11 15 6 8 - - -
16/08:00am - - - - - SE 13 15 7 8 - - -
16/07:30am - - - - - SE 13 17 7 9 - - -
16/07:00am - - - - - SE 15 22 8 12 - - -
16/06:30am - - - - - SSE 15 19 8 10 - - -
16/06:00am - - - - - SSE 17 22 9 12 - - -
16/05:30am - - - - - SSE 19 22 10 12 - - -
16/05:00am - - - - - SSE 19 24 10 13 - - -
16/04:30am - - - - - SSE 17 20 9 11 - - -
16/04:00am - - - - - SSE 20 24 11 13 - - -
16/03:30am - - - - - SSE 20 26 11 14 - - -
16/03:00am - - - - - SSE 24 30 13 16 - - -
16/02:30am - - - - - SSE 22 30 12 16 - - -
16/02:00am - - - - - SSE 22 28 12 15 - - -
16/01:30am - - - - - SSE 19 24 10 13 - - -
16/01:00am - - - - - SSE 22 28 12 15 - - -
16/12:30am - - - - - SSE 24 30 13 16 - - -
16/12:00am - - - - - SSE 22 30 12 16 - - -
 
Date/Time
CDT
Temp
°C
App
Temp
°C
Dew
Point
°C
Rel
Hum
%
Delta-T
°C
Wind Press
QNH
hPa
Press
MSL
hPa
Rain since
9am
mm
Dir  Spd
km/h
Gust
km/h
Spd
kts
Gust
kts
15/11:30pm - - - - - SSE 26 32 14 17 - - -
15/11:00pm - - - - - S 28 35 15 19 - - -
15/10:30pm - - - - - SSE 26 30 14 16 - - -
15/10:00pm - - - - - S 26 32 14 17 - - -
15/09:30pm - - - - - S 32 37 17 20 - - -
15/09:00pm - - - - - SSW 30 35 16 19 - - -
15/08:30pm - - - - - SSW 32 39 17 21 - - -
15/08:00pm - - - - - SW 32 39 17 21 - - -
15/07:30pm - - - - - SSW 26 33 14 18 - - -
15/07:00pm - - - - - SSW 26 30 14 16 - - -
15/06:30pm - - - - - SW 26 32 14 17 - - -
15/06:00pm - - - - - SSW 30 35 16 19 - - -
15/05:30pm - - - - - SW 30 37 16 20 - - -
15/05:00pm - - - - - SSW 30 37 16 20 - - -
15/04:30pm - - - - - SSW 32 39 17 21 - - -
15/04:00pm - - - - - SSW 33 39 18 21 - - -
15/03:30pm - - - - - SSW 35 41 19 22 - - -
15/03:00pm - - - - - SSW 30 33 16 18 - - -
15/02:30pm - - - - - SSW 28 33 15 18 - - -

Other formats

Comma delimited format used in spreadsheet applications
http://www.bom.gov.au/fwo/IDS60801/IDS60801.95675.axf

JavaScript Object Notation format (JSON) in row-major order
http://www.bom.gov.au/fwo/IDS60801/IDS60801.95675.json

Data quality

Most of these data are generated automatically and are frequently updated. Quality checks on data are not normally performed. It is possible for incorrect values to appear. Refer to information at About Latest Weather Observations and please check the disclaimer before using these data.